Gold Coast Airport
YBCG : now visible

Aeroporto :











RITROVATECI SU...

 
LOGIN :

Iscrizione | Disclaimer

   EN    FR    IT 

 









Sommario :    VFR   VFR Marginale   IFR   IFR Intensivo   IFR Molto Intensivo
Visibilità : 
Base nubi : 
>= 8 km
>= 3000ft
5 / 8 km
1000 / 3000 ft
1500m / 5 km
500 / 1000 ft
800 / 1500m
200 / 500 ft
< 800m
< 200 ft
Simboli :   Temporali  Nebbia  Neve Forte  Precipitazioni Forti  Vento > 20 kt






- Altitudine del aeroporto : 21 ft
- Codice IATA : OOL


YBCG - Gold Coast

ULTIMO METAR :
  • 252130Z AUTO 22002KT 9999 // NCD 12/11 Q1017 RF00.0/000.2

METARs OBSOLETI :
  • 252100Z AUTO 22004KT 9999 // NCD 11/10 Q1017
  • 252030Z AUTO 24004KT 9999 // NCD 09/09 Q1016 RF00.0/000.2
  • 252000Z AUTO 24003KT 9999 // NCD 09/08 Q1016
  • 251930Z AUTO 00000KT 9999 // NCD 10/09 Q1016 RF00.0/000.2
  • 251900Z AUTO 23002KT 9999 // NCD 10/09 Q1015

TAF TAF YBCG
Valido dal 25 a 18 ore il 26 a 18 ore UTC


251704Z 2518/2618 25005KT CAVOK
FM260200 03008KT CAVOK
FM260800 25005KT 9999 SCT045
FIR YBBB / Oceania



MetMap, La meteo Aeronautica in un colpo d'occhio ! - Copyright ORBIFLY Dicembre 2007 - Disclaimer

ORBIFLY MET'MAP TEAM :

Programmazione e sviluppo : Alexandra Zaïnal
Concezione : Baudouin d'Aumeries
Aiuto per la programmazione : Marc-Olivier Méhu
Supporto tecnico e logistico : Manuel Goepfert
Aiuto per la traduzione : Arnaldo La Scala

Contatto : metmap@orbifly.com




FONTI E CREDITI :

   NOAA       Earth
Advisory